x

Capers Nearshore (cap 2) (41029) Weather Station

3:08pm - Sat 25th Feb 2017 All times are EST. -5 hours from GMT.

  • Wind
    18mph, 25mph gusts
  • Sea Temp 61°f
  • Air Temp 63°f
  • Sea Pressure 1006.7mb
  • Capers Nearshore (cap 2)
  • Capers Nearshore (cap 2)

More Historic Weather Station data

Upgrade to MSW Pro to gain access to the past 30 days of data for over 8000 Wavebouys and Weather Stations around the globe.

Join Pro

Comparision Forecast

View Surf forecast
   
Sat 02/25 3:08pm 18 25 mph 1006.7mb 61f 63f
2:08pm 18 22 mph 1007mb 62f 62f
1:08pm 16 22 mph 1007.6mb 61f 62f
12:08pm 16 22 mph 1008.8mb 61f 62f
11:08am 16 20 mph 1009.5mb 61f 61f
10:08am 13 18 mph 1009.7mb 60f 61f
9:08am 11 13 mph 1009.8mb 60f 61f
7:08am 4 7 mph 1009.5mb 60f 60f
6:08am 7 9 mph 1009mb 60f 60f
5:08am 4
mph
1008.5mb 60f 59f
4:08am 2 4 mph 1008.4mb 61f 60f
3:08am 2 4 mph 1008.8mb 61f 61f
2:08am 2 7 mph 1009.8mb 61f 62f
1:08am 2 7 mph 1010.4mb 61f 62f
12:08am 4 9 mph 1010.8mb 61f 62f
Fri 02/24 11:08pm 4
mph
1010.5mb 61f 62f
10:08pm 4 9 mph 1010.5mb 60f 62f
9:08pm 7 11 mph 1010.4mb 60f 62f
8:08pm 9 11 mph 1010.4mb 60f 62f
7:08pm 9 11 mph 1010.5mb 60f 62f
6:08pm 9 13 mph 1010.3mb 60f 62f
5:08pm 9 13 mph 1010.3mb 61f 62f
4:08pm 11 13 mph 1010.2mb 61f 63f
3:08pm 11 16 mph 1010.3mb 61f 63f
2:08pm 9 13 mph 1010.7mb 61f 63f
1:08pm 13 16 mph 1011.4mb 61f 63f
12:08pm 11 13 mph 1012mb 61f 63f
11:08am 9 13 mph 1012.6mb 60f 63f
10:08am 9 11 mph 1012.6mb 60f 62f
9:08am 9 13 mph 1012.2mb 60f 61f
8:08am 11 16 mph 1011.5mb 60f 61f
7:08am 11 16 mph 1010.8mb 60f 60f
6:08am 11 16 mph 1010.9mb 60f 61f
5:08am 13 18 mph 1010.6mb 60f 61f
4:08am 11 16 mph 1010.5mb 60f 61f
3:08am 13 16 mph 1010.9mb 60f 61f
2:08am 11 16 mph 1011.1mb 60f 61f
1:08am 11 16 mph 1011.2mb 60f 62f
12:08am 11 16 mph 1011.3mb 60f 62f
Thu 02/23 11:08pm 13 16 mph 1011.4mb 60f 62f
10:08pm 11 16 mph 1011.5mb 60f 62f
9:08pm 13 16 mph 1011.2mb 60f 62f
8:08pm 13 18 mph 1010.9mb 60f 62f
7:08pm 13 20 mph 1010.4mb 60f 62f
6:08pm 11 18 mph 1010.1mb 60f 62f
5:08pm 11 16 mph 1009.8mb 60f 62f
4:08pm 13 18 mph 1009.8mb 60f 62f
3:08pm 16 20 mph 1009.5mb 60f 63f
2:08pm 16 20 mph 1010mb 60f 62f
1:08pm 18 25 mph 1010.5mb 60f 63f
12:08pm 18 22 mph 1011.3mb 60f 63f
11:08am 16 20 mph 1011.7mb 59f 62f
10:08am 16 18 mph 1012mb 59f 62f
9:08am 16 18 mph 1011.6mb 59f 62f
8:08am 13 18 mph 1010.9mb 59f 61f
7:08am 13 18 mph 1010.5mb 59f 61f
6:08am 13 18 mph 1010.4mb 59f 61f
5:08am 13 18 mph 1009.5mb 59f 61f
Wed 02/22 5:08am 9 11 mph 1014.3mb 59f 60f
2:08am 7 9 mph 1015.3mb 59f 60f
1:08am 7 11 mph 1015.9mb 59f 60f
Tue 02/21 11:08pm 9 11 mph 1017.1mb 59f 61f
10:08pm 7 11 mph 1017.7mb 59f 61f